createdAt,value
2019-03-24T00:00:01.941Z,5.84
2019-03-24T00:05:04.962Z,5.91
2019-03-24T00:10:06.672Z,5.81
2019-03-24T00:15:05.977Z,5.84
2019-03-24T00:20:04.720Z,5.89
2019-03-24T00:25:05.023Z,5.83
2019-03-24T00:30:01.922Z,5.94
2019-03-24T00:35:05.810Z,5.92
2019-03-24T00:40:04.904Z,5.83
2019-03-24T00:45:01.809Z,5.63
2019-03-24T00:50:04.857Z,5.59
2019-03-24T00:55:04.899Z,5.54
2019-03-24T01:00:01.816Z,5.79
2019-03-24T01:05:04.709Z,5.56
2019-03-24T01:10:05.828Z,5.62
2019-03-24T01:15:02.829Z,5.7
2019-03-24T01:20:05.135Z,5.62
2019-03-24T01:25:04.615Z,5.78
2019-03-24T01:30:02.066Z,5.97
2019-03-24T01:35:04.561Z,6.15
2019-03-24T01:40:04.325Z,6.3
2019-03-24T01:45:02.039Z,6.4
2019-03-24T01:50:04.278Z,6.46
2019-03-24T01:55:04.782Z,6.49
2019-03-24T02:00:02.478Z,6.56
2019-03-24T02:05:04.525Z,6.66
2019-03-24T02:10:02.939Z,6.65
2019-03-24T02:15:02.058Z,6.68
2019-03-24T02:20:03.092Z,6.85
2019-03-24T02:25:02.820Z,6.9
2019-03-24T02:30:03.967Z,6.93
2019-03-24T02:35:04.173Z,6.93
2019-03-24T02:40:04.960Z,6.93
2019-03-24T02:45:13.119Z,6.95
2019-03-24T02:50:03.887Z,6.93
2019-03-24T02:55:04.274Z,6.9
2019-03-24T03:00:03.060Z,6.79
2019-03-24T03:05:04.569Z,6.76
2019-03-24T03:10:05.013Z,6.8
2019-03-24T03:15:03.048Z,6.74
2019-03-24T03:20:07.393Z,6.76
2019-03-24T03:25:04.790Z,6.7
2019-03-24T03:30:06.744Z,6.45
2019-03-24T03:35:06.769Z,6.39
2019-03-24T03:40:05.382Z,6.33
2019-03-24T03:45:03.947Z,6.38
2019-03-24T03:50:06.674Z,6.35
2019-03-24T03:55:05.810Z,6.42
2019-03-24T04:00:05.256Z,6.41
2019-03-24T04:05:04.432Z,6.43
2019-03-24T04:10:03.721Z,6.45
2019-03-24T04:15:03.901Z,6.39
2019-03-24T04:20:04.164Z,6.33
2019-03-24T04:25:04.788Z,6.35
2019-03-24T04:30:02.475Z,6.39
2019-03-24T04:35:04.220Z,6.39
2019-03-24T04:40:04.656Z,6.29
2019-03-24T04:45:02.354Z,6.42
2019-03-24T04:50:03.971Z,6.24
2019-03-24T04:55:04.779Z,6.25
2019-03-24T05:00:02.572Z,6.42
2019-03-24T05:05:04.260Z,6.25
2019-03-24T05:10:03.071Z,6.33
2019-03-24T05:15:02.026Z,6.43
2019-03-24T05:20:04.542Z,6.3
2019-03-24T05:25:06.383Z,6.31
2019-03-24T05:30:02.048Z,6.41
2019-03-24T05:35:05.771Z,6.21
2019-03-24T05:40:05.193Z,6.38
2019-03-24T05:45:02.236Z,6.2
2019-03-24T05:50:06.877Z,6.2
2019-03-24T05:55:03.794Z,6.28
2019-03-24T06:00:01.862Z,6.53
2019-03-24T06:05:03.097Z,6.28
2019-03-24T06:10:02.199Z,6.45
2019-03-24T06:15:02.909Z,6.64
2019-03-24T06:20:02.547Z,6.52
2019-03-24T06:25:02.939Z,6.51
2019-03-24T06:30:01.807Z,6.63
2019-03-24T06:35:03.020Z,6.66
2019-03-24T06:40:03.358Z,6.68
2019-03-24T06:45:02.648Z,6.74
2019-03-24T06:50:03.941Z,6.94
2019-03-24T06:55:04.787Z,6.73
2019-03-24T07:00:02.526Z,6.98
2019-03-24T07:05:04.301Z,6.79
2019-03-24T07:10:05.604Z,6.98
2019-03-24T07:15:02.853Z,6.87
2019-03-24T07:20:04.655Z,6.84
2019-03-24T07:25:05.657Z,6.93
2019-03-24T07:30:03.090Z,6.93
2019-03-24T07:35:05.378Z,6.93
2019-03-24T07:40:04.978Z,7.12
2019-03-24T07:45:02.829Z,7
2019-03-24T07:50:04.650Z,7
2019-03-24T07:55:04.304Z,7.29
2019-03-24T08:00:03.403Z,7.31
2019-03-24T08:05:03.794Z,7.18
2019-03-24T08:10:04.585Z,7.47
2019-03-24T08:15:02.697Z,7.3
2019-03-24T08:20:04.022Z,7.52
2019-03-24T08:25:05.948Z,7.44
2019-03-24T08:30:02.831Z,7.64
2019-03-24T08:35:03.946Z,7.55
2019-03-24T08:40:05.106Z,7.59
2019-03-24T08:45:03.230Z,7.57
2019-03-24T08:50:04.470Z,7.87
2019-03-24T08:55:05.320Z,7.71
2019-03-24T09:00:03.848Z,7.91
2019-03-24T09:05:05.850Z,7.78
2019-03-24T09:10:03.332Z,8.05
2019-03-24T09:15:03.118Z,7.94
2019-03-24T09:20:04.562Z,8.23
2019-03-24T09:25:04.329Z,8.14
2019-03-24T09:30:03.280Z,8.08
2019-03-24T09:35:03.893Z,8.09
2019-03-24T09:40:04.081Z,8.17
2019-03-24T09:45:02.717Z,8.34
2019-03-24T09:50:03.486Z,8.38
2019-03-24T09:55:04.654Z,8.38
2019-03-24T10:00:03.038Z,8.22
2019-03-24T10:05:04.528Z,8.27
2019-03-24T10:10:04.609Z,8.26
2019-03-24T10:15:03.025Z,8.39
2019-03-24T10:20:04.736Z,8.17
2019-03-24T10:25:05.924Z,8.15
2019-03-24T10:30:02.550Z,8.04
2019-03-24T10:35:05.721Z,8
2019-03-24T10:40:04.793Z,8.07
2019-03-24T10:45:02.592Z,8.06
2019-03-24T10:50:04.940Z,8.12
2019-03-24T10:55:04.172Z,8.04
2019-03-24T11:00:01.999Z,8
2019-03-24T11:05:04.621Z,8.02
2019-03-24T11:10:04.056Z,8.19
2019-03-24T11:15:02.144Z,7.99
2019-03-24T11:20:03.890Z,8.21
2019-03-24T11:25:04.843Z,8.17
2019-03-24T11:30:02.509Z,8.31
2019-03-24T11:35:04.624Z,8.58
2019-03-24T11:40:04.263Z,8.7
2019-03-24T11:45:01.949Z,8.92
2019-03-24T11:50:04.429Z,9.09
2019-03-24T11:55:05.242Z,9.38
2019-03-24T12:00:01.766Z,9.63
2019-03-24T12:05:04.487Z,9.75
2019-03-24T12:10:05.377Z,10.07
2019-03-24T12:15:01.997Z,10.53
2019-03-24T12:20:04.335Z,10.8
2019-03-24T12:25:05.404Z,10.81
2019-03-24T12:30:02.808Z,10.92
2019-03-24T12:35:03.597Z,10.88
2019-03-24T12:40:03.011Z,11.26
2019-03-24T12:45:01.851Z,11.37
2019-03-24T12:50:08.558Z,11.34
2019-03-24T12:55:02.713Z,11.51
2019-03-24T13:00:02.663Z,11.48
2019-03-24T13:05:03.592Z,11.43
2019-03-24T13:10:03.037Z,11.44
2019-03-24T13:15:01.865Z,11.79
2019-03-24T13:20:03.114Z,11.7
2019-03-24T13:25:03.405Z,11.61
2019-03-24T13:30:02.554Z,11.17
2019-03-24T13:35:02.813Z,11.13
2019-03-24T13:40:03.219Z,11.09
2019-03-24T13:45:02.897Z,10.95
2019-03-24T13:50:04.170Z,10.74
2019-03-24T13:55:04.019Z,10.58
2019-03-24T14:00:02.748Z,10.51
2019-03-24T14:05:03.981Z,10.58
2019-03-24T14:10:05.039Z,10.71
2019-03-24T14:15:02.400Z,10.73
2019-03-24T14:20:03.577Z,10.84
2019-03-24T14:25:05.518Z,11.07
2019-03-24T14:30:02.844Z,11.19
2019-03-24T14:35:03.518Z,11.24
2019-03-24T14:40:04.677Z,11.18
2019-03-24T14:45:02.906Z,10.99
2019-03-24T14:50:03.975Z,10.9
2019-03-24T14:55:05.193Z,10.95
2019-03-24T15:00:02.557Z,11
2019-03-24T15:05:04.693Z,10.89
2019-03-24T15:10:05.503Z,10.87
2019-03-24T15:15:03.905Z,10.98
2019-03-24T15:20:05.548Z,10.94
2019-03-24T15:25:04.876Z,10.85
2019-03-24T15:30:03.258Z,10.82
2019-03-24T15:35:05.702Z,10.7
2019-03-24T15:40:04.698Z,10.74
2019-03-24T15:45:03.098Z,10.63
2019-03-24T15:50:04.468Z,10.51
2019-03-24T15:55:04.666Z,10.5
2019-03-24T16:00:03.162Z,10.4
2019-03-24T16:05:04.842Z,10.35
2019-03-24T16:10:04.826Z,10.23
2019-03-24T16:15:03.109Z,10.23
2019-03-24T16:20:03.930Z,10.18
2019-03-24T16:25:05.094Z,10.07
2019-03-24T16:30:03.183Z,9.99
2019-03-24T16:35:03.454Z,9.93
2019-03-24T16:40:04.561Z,9.92
2019-03-24T16:45:02.869Z,9.85
2019-03-24T16:50:04.097Z,9.7
2019-03-24T16:55:05.393Z,9.52
2019-03-24T17:00:02.647Z,9.57
2019-03-24T17:05:06.514Z,9.53
2019-03-24T17:10:04.299Z,9.39
2019-03-24T17:15:02.694Z,9.22
2019-03-24T17:20:06.069Z,9.03
2019-03-24T17:25:04.819Z,8.73
2019-03-24T17:30:03.307Z,8.53
2019-03-24T17:35:04.779Z,8.35
2019-03-24T17:40:04.360Z,8.08
2019-03-24T17:45:02.850Z,7.88
2019-03-24T17:50:03.769Z,7.74
2019-03-24T17:55:04.023Z,7.53
2019-03-24T18:00:02.519Z,7.26
2019-03-24T18:05:04.898Z,7.12
2019-03-24T18:10:04.574Z,6.91
2019-03-24T18:15:03.013Z,6.69
2019-03-24T18:20:04.061Z,6.51
2019-03-24T18:25:06.086Z,6.28
2019-03-24T18:30:02.736Z,6.08
2019-03-24T18:35:04.251Z,5.89
2019-03-24T18:40:05.161Z,5.69
2019-03-24T18:45:02.062Z,5.57
2019-03-24T18:50:05.585Z,5.41
2019-03-24T18:55:05.401Z,5.32
2019-03-24T19:00:02.985Z,5.26
2019-03-24T19:05:06.528Z,5.21
2019-03-24T19:10:04.626Z,5.15
2019-03-24T19:15:02.157Z,5.05
2019-03-24T19:20:05.914Z,5.01
2019-03-24T19:25:05.878Z,4.98
2019-03-24T19:30:02.259Z,4.93
2019-03-24T19:35:04.205Z,4.88
2019-03-24T19:40:04.755Z,4.77
2019-03-24T19:45:02.721Z,4.67
2019-03-24T19:50:04.630Z,4.61
2019-03-24T19:55:04.412Z,4.54
2019-03-24T20:00:01.983Z,4.48
2019-03-24T20:05:04.892Z,4.48
2019-03-24T20:10:04.312Z,4.43
2019-03-24T20:15:01.869Z,4.3
2019-03-24T20:20:04.154Z,4.29
2019-03-24T20:25:04.986Z,4.16
2019-03-24T20:30:03.219Z,4.1
2019-03-24T20:35:03.653Z,4.07
2019-03-24T20:40:03.976Z,3.98
2019-03-24T20:45:05.078Z,3.88
2019-03-24T20:50:03.856Z,3.8
2019-03-24T20:55:05.724Z,3.78
2019-03-24T21:00:05.796Z,3.74
2019-03-24T21:05:10.788Z,3.6
2019-03-24T21:10:15.594Z,3.55
2019-03-24T21:15:08.056Z,3.53
2019-03-24T21:20:08.861Z,3.41
2019-03-24T21:25:08.032Z,3.32
2019-03-24T21:30:07.334Z,3.29
2019-03-24T21:35:10.426Z,3.28
2019-03-24T21:40:09.653Z,3.2
2019-03-24T21:45:07.434Z,3.14
2019-03-24T21:50:08.912Z,3.12
2019-03-24T21:55:08.167Z,3.04
2019-03-24T22:00:06.934Z,3
2019-03-24T22:05:06.503Z,2.97
2019-03-24T22:10:06.597Z,2.93
2019-03-24T22:15:06.930Z,2.87
2019-03-24T22:20:05.626Z,2.91
2019-03-24T22:25:07.515Z,2.83
2019-03-24T22:30:06.555Z,2.74
2019-03-24T22:35:06.310Z,2.87
2019-03-24T22:40:07.905Z,2.88
2019-03-24T22:45:08.630Z,2.87
2019-03-24T22:50:09.665Z,2.82
2019-03-24T22:55:06.040Z,2.82
2019-03-24T23:00:05.307Z,2.79
2019-03-24T23:05:04.705Z,2.8
2019-03-24T23:10:04.502Z,2.65
2019-03-24T23:15:07.828Z,2.56
2019-03-24T23:20:09.391Z,2.57
2019-03-24T23:25:07.296Z,2.56
2019-03-24T23:30:08.247Z,2.56
2019-03-24T23:35:10.575Z,2.52
2019-03-24T23:40:07.579Z,2.46
2019-03-24T23:45:06.975Z,2.4
2019-03-24T23:50:07.875Z,2.32
2019-03-24T23:55:07.872Z,2.32
